Date,TemperatureHighF,TemperatureAvgF,TemperatureLowF,DewpointHighF,DewpointAvgF,DewpointLowF,HumidityHigh,HumidityAvg,HumidityLow,PressureMaxIn,PressureMinIn,WindSpeedMaxMPH,WindSpeedAvgMPH,GustSpeedMaxMPH,PrecipitationSumIn
2013-1-21,28,25,19,14,5,-3,73,44,27,29.92,29.69,7,0,7,0.00
2013-1-22,24,20,14,16,9,3,74,64,48,29.73,29.61,6,1,7,0.00
2013-1-24,20,12,0,-6,-10,-14,52,38,26,30.00,29.82,10,1,10,0.00
2013-1-25,21,12,-1,4,-3,-10,73,51,35,30.09,29.92,4,0,5,0.00
2013-1-26,25,17,11,4,-2,-9,57,42,25,30.02,29.85,9,1,11,0.00
2013-1-27,28,17,6,6,-1,-8,67,46,30,30.29,30.01,7,0,10,0.00
2013-1-28,30,20,9,21,9,-8,91,64,33,30.30,29.93,3,0,4,0.00
2013-1-29,34,28,22,30,24,20,94,88,72,30.07,29.92,4,0,4,0.00
2013-1-30,48,42,32,48,41,30,99,97,94,30.01,29.31,12,1,15,0.00
2013-1-31,51,48,44,51,48,44,99,99,98,29.31,28.72,15,2,18,0.00
2013-2-2,26,25,24,13,11,7,62,54,45,29.97,29.91,9,0,10,0.00
2013-2-3,29,25,22,19,15,12,81,65,55,29.91,29.55,6,0,6,0.00
2013-2-4,25,21,18,14,9,-4,77,59,36,29.74,29.54,4,0,5,0.00
2013-2-5,26,19,10,12,3,-5,67,50,31,29.89,29.74,6,0,7,0.00
2013-2-6,27,23,20,13,3,-6,70,42,30,30.14,29.82,5,1,6,0.00
2013-2-7,26,19,12,5,-3,-9,54,39,25,30.42,30.14,6,0,7,0.00
2013-2-8,19,16,13,16,12,3,91,85,50,30.41,29.69,14,1,15,0.00
2013-2-9,19,15,12,16,11,8,90,86,81,29.98,29.49,18,4,18,0.00
2013-2-10,34,21,9,24,13,5,82,72,50,30.22,29.98,9,0,10,0.00
2013-2-11,40,26,13,39,22,6,97,86,64,30.21,29.45,11,0,12,0.00
2013-2-12,48,36,30,40,30,27,98,80,48,29.65,29.38,9,0,10,0.00
2013-2-13,46,35,26,28,25,22,87,68,41,29.69,29.58,7,0,7,0.00
2013-2-14,43,35,28,27,23,18,86,62,37,29.86,29.57,7,0,7,0.00
2013-2-15,44,35,25,36,31,22,95,85,69,29.86,29.77,12,0,12,0.00
2013-2-16,38,33,29,34,29,13,95,83,53,29.80,29.63,7,0,9,0.00
2013-2-17,29,22,19,18,11,1,89,64,44,29.62,29.07,15,3,18,0.00
2013-2-18,33,23,14,9,1,-5,57,39,23,29.92,29.35,16,1,16,0.00
2013-2-19,42,32,18,42,18,-4,97,58,26,29.97,29.42,11,1,12,0.00
2013-2-20,42,34,27,41,26,16,97,75,58,29.54,29.31,9,1,10,0.00
2013-2-21,32,27,23,20,15,9,70,59,41,30.01,29.54,11,1,12,0.00
2013-2-22,42,32,25,23,21,19,79,65,44,30.26,30.01,6,0,9,0.00
2013-2-23,29,28,28,22,22,22,79,78,77,30.22,30.21,0,0,0,0.00
2013-2-24,32,30,29,31,30,28,97,97,96,29.77,29.63,1,0,2,0.00
2013-2-25,41,33,25,36,30,24,97,89,66,30.11,29.77,4,0,4,0.00
2013-2-26,45,36,32,35,30,27,97,80,51,30.23,30.10,5,0,6,0.00
2013-2-27,39,36,33,35,33,29,97,88,72,30.11,29.48,20,4,23,0.00
2013-2-28,42,36,33,41,35,31,98,96,93,29.48,29.39,8,0,12,0.00
2013-3-1,37,34,32,31,30,28,95,85,72,29.54,29.40,9,0,9,0.00
2013-3-2,44,35,31,34,31,28,97,84,53,29.52,29.46,7,0,7,0.00
2013-3-3,42,36,31,37,31,26,97,83,66,29.48,29.40,4,0,5,0.00
2013-3-4,38,34,32,29,25,22,83,72,61,29.55,29.37,10,1,11,0.00
2013-3-5,45,38,32,34,30,23,89,73,61,29.97,29.55,12,1,13,0.00
2013-3-6,39,36,33,34,30,27,94,80,66,30.09,29.97,17,2,17,0.00
2013-3-7,36,34,31,29,27,25,90,76,66,30.06,29.93,14,2,16,0.00
2013-3-8,43,35,29,28,26,22,95,72,46,30.05,29.88,11,2,13,0.00
2013-3-9,45,36,27,30,26,23,93,69,49,30.25,30.05,10,1,13,0.00
2013-3-10,41,34,28,31,28,25,94,80,63,30.30,30.18,7,0,8,0.00
2013-3-12,46,46,45,46,45,45,98,98,97,29.65,29.60,18,4,19,0.00
2013-3-13,45,42,40,45,42,40,98,98,98,29.60,29.55,11,0,14,0.00
2013-3-15,36,31,28,24,20,17,82,65,48,29.50,29.48,3,0,3,0.00
2013-3-16,30,28,28,25,19,13,82,68,54,29.60,29.50,6,0,6,0.00
2013-3-20,34,30,28,25,23,21,77,74,67,29.61,29.52,7,0,10,0.00
2013-3-21,43,36,27,23,21,16,77,55,38,29.63,29.49,6,0,7,0.00
2013-3-23,44,36,25,24,21,18,77,55,38,29.48,29.39,13,2,13,0.00
2013-3-24,48,46,40,26,24,22,54,43,36,29.65,29.59,8,1,11,0.00
2013-3-27,37,37,36,35,35,35,95,95,94,29.73,29.73,4,0,4,0.00
2013-3-28,49,41,34,39,33,28,97,76,46,29.85,29.73,7,0,10,0.00
2013-3-29,38,36,34,31,30,28,83,78,69,29.89,29.84,0,0,0,0.00
2013-3-30,48,37,32,34,29,18,87,73,49,29.96,29.88,4,0,5,0.00
2013-3-31,53,43,27,39,30,17,79,61,32,29.98,29.71,11,1,12,0.00
2013-4-1,58,46,39,45,41,37,97,85,59,29.70,29.36,10,1,14,0.00
2013-4-2,44,37,29,15,12,8,50,35,25,29.71,29.61,12,2,12,0.00
2013-4-3,39,32,28,17,14,9,59,49,29,29.93,29.69,7,0,7,0.00
2013-4-4,34,34,34,17,17,17,49,49,49,29.93,29.93,4,2,7,0.00
2013-4-14,44,43,41,33,32,31,67,65,64,30.06,30.02,5,0,5,0.00
2013-4-15,41,35,31,34,30,29,93,83,68,30.23,30.06,2,0,2,0.00
2013-7-10,66,65,64,65,65,64,98,97,97,29.69,29.66,1,0,1,0.00
2013-7-11,76,70,65,74,69,65,98,96,85,29.83,29.63,4,0,4,0.00
2013-7-12,80,69,61,67,60,56,96,76,52,30.10,29.83,10,0,10,0.00
2013-7-13,83,69,59,65,61,57,97,79,49,30.21,30.10,3,0,3,0.00
2013-7-14,89,75,64,73,67,63,97,79,53,30.17,30.07,6,0,6,0.01
2013-7-15,94,79,68,75,69,62,97,74,35,30.07,29.96,10,0,10,0.00
2013-7-16,91,77,70,77,69,66,89,77,50,30.04,29.97,5,0,5,0.00
2013-7-17,84,75,68,72,69,66,96,81,60,30.06,29.79,4,0,6,0.00
2013-7-18,86,76,69,76,70,67,97,84,62,29.90,29.81,7,0,8,0.00
2013-7-19,94,79,68,77,71,66,97,79,51,29.84,29.53,7,0,7,0.00
2013-7-20,90,79,72,73,69,66,87,72,53,29.65,29.50,6,0,6,0.00
2013-7-21,79,70,62,67,61,52,95,74,49,29.90,29.66,5,0,5,0.00
2013-7-22,72,66,63,65,63,61,97,91,76,29.93,29.80,6,0,6,0.00
2013-7-23,69,65,62,68,64,61,97,96,94,29.80,29.43,6,0,6,0.00
2013-7-24,87,71,60,73,65,50,97,82,61,29.85,29.46,11,0,11,0.00
2013-7-25,71,62,57,59,54,49,95,76,58,30.01,29.85,5,0,9,0.00
2013-7-26,70,65,60,65,62,59,96,91,81,29.97,29.78,12,0,12,0.00
2013-7-27,84,71,61,69,64,60,96,81,55,29.91,29.82,5,0,5,0.00
2013-7-28,66,64,62,64,62,61,97,96,92,29.93,29.89,6,0,6,0.00
2013-7-29,75,66,60,67,63,59,98,92,73,29.94,29.88,5,0,5,0.00
2013-7-30,80,68,59,67,63,58,97,84,60,29.96,29.89,5,0,5,0.00
2013-7-31,81,68,56,64,60,55,97,77,49,30.00,29.92,6,0,6,0.00
2013-8-1,80,69,59,69,64,58,97,85,64,29.93,29.76,7,0,10,0.00
2013-8-2,79,68,62,69,65,60,97,90,67,29.76,29.64,5,0,5,0.00
2013-8-3,82,68,59,66,60,57,97,78,45,29.71,29.61,7,0,7,0.00
2013-8-4,78,65,56,66,59,54,96,81,50,29.72,29.63,6,0,6,0.00
2013-8-5,78,64,52,58,52,45,96,69,40,29.92,29.72,7,0,7,0.00
2013-8-6,78,64,50,63,53,45,92,71,46,30.04,29.91,5,0,5,0.00
2013-8-7,79,64,52,66,59,51,97,84,58,30.07,30.01,5,0,5,0.00
2013-8-8,66,64,63,65,61,60,96,91,86,30.01,29.95,4,0,4,0.00
2013-8-10,85,74,60,70,58,49,98,60,34,29.87,29.70,7,0,9,0.00
2013-8-11,79,64,52,62,56,50,95,76,46,29.93,29.87,2,0,4,0.00
2013-8-12,79,66,56,65,59,54,96,79,53,29.89,29.78,5,0,5,0.00
2013-8-13,71,65,59,66,62,57,97,90,77,29.79,29.57,7,0,7,0.00
2013-8-14,79,67,62,65,62,58,97,86,50,29.57,29.51,5,0,6,0.00
2013-8-17,75,73,71,60,59,56,65,61,56,30.15,30.14,4,0,4,0.00
2013-8-18,74,64,54,64,58,52,96,82,61,30.15,29.93,4,0,4,0.00
2013-8-19,85,70,57,69,62,56,97,77,50,29.93,29.78,4,0,4,0.00
2013-8-20,83,71,61,68,63,59,95,78,52,29.95,29.83,5,0,5,0.00
2013-8-21,83,70,60,68,64,59,97,81,57,30.00,29.87,5,0,5,0.00
2013-8-22,85,72,62,70,65,61,95,81,56,29.87,29.65,6,0,6,0.00
2013-8-23,80,71,62,68,56,46,95,62,34,30.02,29.65,10,0,10,0.00
2013-8-24,79,64,52,56,50,46,89,62,36,30.18,30.02,5,0,6,0.00
2013-8-25,78,63,52,60,55,49,97,77,48,30.23,30.02,6,0,6,0.00
2013-8-26,81,67,60,70,63,57,96,85,64,30.02,29.74,5,0,5,0.00
2013-8-27,84,70,64,69,64,62,96,83,57,29.78,29.72,6,0,6,0.00
2013-8-28,77,66,61,68,63,60,97,90,69,29.89,29.75,6,0,6,0.00
2013-8-29,70,64,61,63,61,57,97,88,73,29.98,29.86,8,0,10,0.00
2013-8-30,78,67,58,67,62,55,95,85,65,29.91,29.66,5,0,5,0.00
2013-8-31,78,70,65,71,67,63,96,89,73,29.70,29.64,6,0,6,0.00
2013-9-1,83,72,66,72,68,65,97,87,65,29.79,29.63,4,0,4,0.00
2013-9-2,68,66,63,68,66,62,98,97,95,29.77,29.61,12,0,12,0.00
2013-9-3,76,69,64,72,63,-100,98,92,82,29.66,29.58,5,0,5,0.00
2013-9-4,82,68,58,62,58,54,97,75,40,29.76,29.63,4,0,5,0.00
2013-9-5,66,60,51,60,54,43,94,81,63,30.02,29.73,10,0,10,0.00
2013-9-6,68,56,43,54,46,39,97,74,41,30.11,29.92,5,0,6,0.00
2013-9-7,76,62,50,61,52,46,90,73,45,29.92,29.67,6,0,6,0.00
2013-9-8,69,60,54,60,44,-100,92,66,41,29.90,29.59,15,1,17,0.01
2013-9-9,69,62,57,55,47,41,89,60,45,30.09,29.78,0,0,0,0.00
2013-9-10,65,61,55,63,58,51,96,89,78,30.01,29.90,0,0,0,0.02
2013-9-11,86,72,62,74,67,60,98,84,64,29.92,29.78,0,0,0,0.54
2013-9-12,75,67,64,70,66,62,97,94,79,29.86,29.54,0,0,0,1.29
2013-9-13,70,64,58,69,63,57,98,96,86,29.60,29.46,0,0,0,1.37
2013-9-14,70,60,54,61,56,50,98,87,68,29.90,29.60,16,0,16,0.02
2013-9-15,69,57,46,57,51,45,97,82,60,30.01,29.89,0,0,0,0.00
2013-9-16,68,57,46,57,50,35,93,78,59,30.13,29.85,0,0,0,0.01
2013-9-17,65,51,41,50,42,34,92,71,45,30.29,30.14,0,0,0,0.00
2013-9-18,72,54,42,55,48,40,98,81,44,30.17,29.98,0,0,0,0.00
2013-9-19,76,58,45,54,50,44,98,78,38,30.01,29.91,0,0,0,0.00
2013-9-20,74,58,48,57,52,47,98,82,48,29.98,29.90,0,0,0,0.00
2013-9-21,67,59,51,62,57,50,98,93,79,29.90,29.63,0,0,0,0.00
2013-9-22,71,62,49,64,58,45,97,86,61,29.65,29.47,0,0,0,0.51
2013-9-23,63,50,42,45,42,39,95,75,49,29.84,29.65,0,0,0,0.00
2013-9-24,60,48,38,46,42,37,96,79,54,29.83,29.70,0,0,0,0.07
2013-9-25,60,53,43,49,46,41,96,78,60,29.86,29.74,0,0,0,0.00
2013-9-26,65,55,45,53,48,43,95,78,60,30.01,29.86,0,0,0,0.00
2013-9-27,69,59,52,57,52,49,95,78,61,30.13,30.01,0,0,0,0.14
2013-9-28,66,56,50,56,52,48,97,86,65,30.22,30.13,0,0,0,0.00
2013-9-29,63,54,48,55,50,46,97,90,70,30.15,30.01,0,0,0,0.01
2013-9-30,60,50,41,54,47,40,98,91,71,30.02,29.86,0,0,0,0.08
2013-10-1,73,57,45,58,51,44,98,83,53,29.86,29.70,0,0,0,0.10
2013-10-2,78,63,52,63,56,51,97,81,54,29.78,29.64,0,0,0,0.00
2013-10-3,72,60,50,56,52,47,97,78,43,29.94,29.78,0,0,0,0.14
2013-10-4,69,58,48,55,51,44,97,80,45,29.97,29.91,0,0,0,0.00
2013-10-5,61,57,54,53,50,48,94,79,66,30.03,29.95,0,0,0,0.00
2013-10-6,54,53,51,53,47,40,96,82,66,30.16,30.01,0,0,0,0.11
2013-10-7,64,60,54,63,59,52,98,97,96,30.07,29.67,0,0,0,0.31
2013-10-8,63,54,43,58,46,39,96,75,45,30.27,29.72,0,0,0,0.00
2013-10-9,58,47,38,45,41,36,96,81,57,30.37,30.25,0,0,0,0.00
2013-10-10,61,48,39,51,45,38,98,88,68,30.25,30.07,0,0,0,0.00
2013-10-11,64,53,45,53,48,43,97,85,50,30.07,30.00,0,0,0,0.00
2013-10-12,56,52,45,54,49,43,97,89,79,30.30,30.04,0,0,0,0.00
2013-10-13,58,50,42,51,46,39,97,87,66,30.35,30.28,0,0,0,0.00
2013-10-14,59,49,39,52,45,38,98,86,64,30.28,30.13,0,0,0,0.00
2013-10-15,62,56,52,54,52,50,95,86,71,30.16,30.09,0,0,0,0.00
2013-10-16,58,55,53,55,54,51,96,94,85,30.09,29.78,0,0,0,0.00
2013-10-17,66,58,52,58,55,51,97,90,74,29.78,29.58,0,0,0,0.01
2013-10-18,68,59,51,59,52,44,98,79,51,29.72,29.45,0,0,0,0.16
2013-10-19,62,52,42,52,45,38,88,77,59,29.82,29.63,0,0,0,0.00
2013-10-20,62,54,44,53,42,32,93,65,34,29.84,29.54,0,0,0,0.00
2013-10-21,61,50,38,50,42,35,94,77,49,29.97,29.84,0,0,0,0.00
2013-10-22,60,54,44,55,50,40,94,87,81,29.86,29.57,0,0,0,0.00
2013-10-23,53,44,34,42,38,32,96,81,56,29.65,29.46,0,0,0,0.00
2013-10-24,51,44,36,39,32,28,84,63,42,29.70,29.47,0,0,0,0.00
2013-10-25,50,40,31,36,30,24,95,70,45,29.98,29.71,0,0,0,0.00
2013-10-26,51,41,28,38,31,24,95,69,49,29.99,29.74,0,0,0,0.00
2013-10-27,56,47,36,41,36,27,93,68,45,29.89,29.66,0,0,0,0.08
2013-10-28,58,42,33,40,31,24,86,65,43,30.22,29.89,0,0,0,0.08
2013-10-29,45,35,27,29,25,22,87,68,48,30.33,30.23,0,0,0,0.00
2013-10-30,49,37,29,33,29,25,91,73,48,30.23,30.04,0,0,0,0.00
2013-10-31,55,42,29,54,40,28,97,93,85,30.12,29.65,0,0,0,0.17
2013-11-1,63,57,54,58,54,-100,98,90,72,29.65,29.24,14,1,14,0.11
2013-11-2,66,54,46,51,45,42,93,75,45,29.61,29.44,9,0,9,0.05
2013-11-3,50,40,30,48,28,18,93,64,43,30.29,29.61,15,1,15,0.00
2013-11-4,42,32,26,21,19,16,79,58,35,30.58,30.30,11,0,11,0.00
2013-11-5,47,36,26,36,29,20,90,76,55,30.58,30.38,7,0,7,0.00
2013-11-6,54,47,39,49,42,33,94,83,70,30.38,29.86,12,1,12,0.00
2013-11-7,57,51,42,55,47,31,95,87,66,29.86,29.50,12,0,12,0.03
2013-11-8,47,38,30,31,26,23,80,61,44,29.88,29.64,10,0,10,0.00
2013-11-9,47,37,30,30,23,20,72,58,37,30.01,29.88,11,0,11,0.00
2013-11-10,45,41,37,42,37,30,95,86,71,29.93,29.58,6,0,6,0.04
2013-11-11,47,41,34,36,30,27,85,66,48,29.91,29.62,10,0,10,0.00
2013-11-12,45,34,24,34,21,14,80,59,49,30.00,29.70,10,0,10,0.00
2013-11-13,37,27,19,16,13,10,77,58,36,30.11,29.97,11,0,11,0.00
2013-11-14,50,38,29,30,24,15,74,57,40,29.96,29.85,13,0,13,0.00
2013-11-15,52,40,30,39,30,21,93,67,31,30.04,29.94,9,0,10,0.00
2013-11-16,51,40,33,38,33,28,95,76,49,30.21,30.04,3,0,4,0.00
2013-11-17,52,46,36,52,44,35,98,95,86,30.21,29.78,9,0,9,0.07
2013-11-18,64,54,46,56,48,34,98,82,47,29.77,29.35,20,1,20,0.16
2013-11-19,46,37,28,34,22,15,66,54,39,30.10,29.46,13,1,13,0.00
2013-11-20,40,32,25,16,14,9,66,48,28,30.50,30.09,13,0,13,0.00
2013-11-21,47,34,20,28,19,11,82,57,27,30.50,30.21,10,0,10,0.01
2013-11-22,41,37,34,38,32,24,94,81,61,30.21,29.64,6,0,6,0.02
2013-11-23,45,36,27,39,25,14,95,66,33,29.69,29.56,10,1,13,0.01
2013-11-24,28,23,19,21,6,0,78,47,34,29.91,29.56,13,2,13,0.00
2013-11-25,35,25,16,15,3,-4,53,39,21,30.18,29.91,13,1,13,0.00
2013-11-26,35,32,28,33,24,14,95,75,49,30.18,30.00,11,0,11,0.09
2013-11-27,57,49,34,56,48,33,98,98,95,30.00,29.02,18,2,18,1.61
2013-11-28,40,30,20,40,18,7,97,63,40,30.27,29.17,14,1,14,0.00
2013-11-29,30,21,15,12,8,3,78,58,33,30.61,30.27,7,0,7,0.00
2013-11-30,33,23,15,25,14,7,80,69,53,30.69,30.29,10,0,10,0.00
2013-12-1,36,34,31,36,31,24,97,89,70,30.29,29.91,10,0,10,0.42
2013-12-2,38,36,34,37,35,33,97,97,97,29.91,29.78,6,0,6,0.04
2013-12-3,44,37,31,43,35,28,98,92,81,29.79,29.71,6,0,6,0.01
2013-12-4,41,32,27,31,27,25,95,83,61,30.08,29.77,7,0,7,0.00
2013-12-5,45,36,27,45,34,25,97,94,88,30.12,29.78,6,0,6,0.02
2013-12-6,44,40,34,44,40,33,98,97,96,30.00,29.72,3,0,3,0.13
2013-12-7,39,32,22,36,26,12,97,81,56,30.29,29.94,7,0,7,0.20
2013-12-8,31,25,19,18,13,10,76,61,44,30.44,30.29,7,0,7,0.00
2013-12-9,37,31,26,36,26,14,96,84,56,30.40,29.72,5,1,15,0.06
2013-12-10,34,29,20,32,27,16,96,92,83,29.78,29.60,7,0,7,0.01
2013-12-11,31,24,18,19,15,13,84,70,56,30.01,29.78,10,0,10,0.00
2013-12-12,22,16,9,18,5,-3,84,62,37,30.12,29.88,13,0,13,0.00
2013-12-13,25,17,7,12,4,-7,70,57,42,30.26,29.78,11,1,11,0.00
2013-12-14,18,11,3,15,0,-8,90,62,47,30.49,30.20,15,0,15,0.00
2013-12-15,20,16,11,18,14,8,92,90,87,30.20,29.26,17,2,17,0.00
2013-12-16,24,17,6,20,13,2,91,86,77,30.07,29.52,11,0,11,0.00
2013-12-17,15,8,-2,12,4,-7,89,83,78,30.16,29.88,11,0,11,0.00
2013-12-18,30,21,12,28,18,9,93,91,87,29.88,29.71,9,0,9,0.00
2013-12-19,32,28,18,31,26,16,95,93,89,29.95,29.79,10,0,10,0.00
2013-12-20,42,34,29,41,33,28,98,97,95,29.98,29.77,2,0,3,0.26
2013-12-21,41,36,33,41,36,32,99,98,98,29.82,29.70,6,0,6,0.28
2013-12-22,35,31,28,35,30,27,99,98,97,29.95,29.75,12,1,12,0.28
2013-12-23,33,30,28,32,30,27,98,98,97,29.98,29.85,11,0,11,0.12
2013-12-24,32,27,16,32,25,13,98,93,84,30.05,29.93,7,0,7,0.00
2013-12-25,20,13,6,13,7,2,86,77,67,30.40,30.05,7,0,7,0.00
2013-12-26,28,20,14,26,18,11,93,90,86,30.38,29.94,1,0,2,0.00
2013-12-27,31,22,13,28,19,10,96,89,81,30.08,30.00,3,0,6,0.03
2013-12-28,37,30,19,31,26,16,94,86,73,30.04,29.81,11,0,11,0.02
2013-12-29,39,32,27,36,31,25,96,93,85,29.88,29.36,11,0,11,0.66
2013-12-30,36,25,9,33,20,0,96,82,60,30.06,29.37,9,0,9,0.04
2013-12-31,15,9,4,5,2,-3,84,72,55,30.05,29.91,7,0,7,0.00
2014-1-1,24,14,5,8,5,1,88,69,47,30.26,29.99,13,0,13,0.00
2014-1-2,14,3,-3,7,-2,-8,81,78,68,30.28,29.83,20,2,20,0.00